Time;durP1;ratioP1;P1;durP2;ratioP2;P2;SDS_P1;SDS_P2;PMS_P1;PMS_P2;Temp;Humidity;BMP_temperature;BMP_pressure;BME280_temperature;BME280_humidity;BME280_pressure;Samples;Min_cycle;Max_cycle;Signal;HPM_P1;HPM_P2
2024/02/05 00:00:57;;;;;;;6.63;3.15;;;;;;;;;;2073014;28;20030;-52
2024/02/05 00:01:58;;;;;;;6.65;3.30;;;;;;;;;;2081197;28;20021;-53
2024/02/05 00:03:00;;;;;;;7.15;3.45;;;;;;;;;;2081729;28;20033;-53
2024/02/05 00:04:01;;;;;;;6.60;3.08;;;;;;;;;;2081893;28;20018;-55
2024/02/05 00:05:02;;;;;;;8.80;3.05;;;;;;;;;;2081897;28;20030;-52
2024/02/05 00:06:04;;;;;;;5.32;3.08;;;;;;;;;;2081756;28;20108;-53
2024/02/05 00:07:05;;;;;;;5.53;3.00;;;;;;;;;;2081270;28;20641;-53
2024/02/05 00:08:07;;;;;;;5.07;2.78;;;;;;;;;;2073764;28;20488;-54
2024/02/05 00:09:11;;;;;;;6.60;3.03;;;;;;;;;;2073816;28;20022;-53
2024/02/05 00:10:13;;;;;;;9.73;3.05;;;;;;;;;;2073959;28;20029;-50
2024/02/05 00:11:14;;;;;;;7.22;2.72;;;;;;;;;;2066290;28;20022;-53
2024/02/05 00:12:16;;;;;;;6.28;3.45;;;;;;;;;;2065113;28;20029;-55
2024/02/05 00:13:17;;;;;;;5.72;3.28;;;;;;;;;;2073119;28;20147;-53
2024/02/05 00:14:18;;;;;;;4.35;2.95;;;;;;;;;;2072997;28;20018;-53
2024/02/05 00:15:20;;;;;;;6.55;2.97;;;;;;;;;;2079642;28;20043;-53
2024/02/05 00:16:21;;;;;;;6.28;2.97;;;;;;;;;;2081524;28;20018;-53
2024/02/05 00:17:22;;;;;;;7.97;3.65;;;;;;;;;;2081684;28;20030;-55
2024/02/05 00:18:26;;;;;;;8.07;3.17;;;;;;;;;;2081629;28;20030;-52
2024/02/05 00:19:28;;;;;;;7.45;3.25;;;;;;;;;;2081278;28;20092;-53
2024/02/05 00:20:29;;;;;;;6.80;3.00;;;;;;;;;;2080359;28;20357;-54
2024/02/05 00:21:30;;;;;;;5.20;2.92;;;;;;;;;;2080921;28;20018;-52
2024/02/05 00:22:32;;;;;;;5.57;2.80;;;;;;;;;;2073313;28;20021;-54
2024/02/05 00:23:33;;;;;;;6.97;3.90;;;;;;;;;;2074479;28;20125;-47
2024/02/05 00:24:34;;;;;;;5.45;3.22;;;;;;;;;;2081528;28;20096;-49
2024/02/05 00:25:37;;;;;;;4.90;2.75;;;;;;;;;;2081613;28;20025;-48
2024/02/05 00:26:38;;;;;;;5.32;2.80;;;;;;;;;;2081492;28;20565;-46
2024/02/05 00:27:40;;;;;;;6.25;3.10;;;;;;;;;;2079596;28;20025;-47
2024/02/05 00:28:41;;;;;;;5.90;3.08;;;;;;;;;;2081510;28;20018;-47
2024/02/05 00:29:42;;;;;;;4.55;2.60;;;;;;;;;;2081445;28;20025;-46
2024/02/05 00:30:43;;;;;;;8.95;2.92;;;;;;;;;;2081059;28;20052;-47
2024/02/05 00:31:45;;;;;;;6.07;3.15;;;;;;;;;;2081454;28;20033;-47
2024/02/05 00:32:46;;;;;;;4.90;2.28;;;;;;;;;;2081416;28;20071;-49
2024/02/05 00:33:47;;;;;;;7.68;2.47;;;;;;;;;;2081392;28;20087;-47
2024/02/05 00:34:49;;;;;;;6.65;3.00;;;;;;;;;;2081578;28;20025;-46
2024/02/05 00:35:50;;;;;;;5.60;3.05;;;;;;;;;;2080913;28;20044;-48
2024/02/05 00:36:51;;;;;;;6.05;2.53;;;;;;;;;;2073272;28;20034;-47
2024/02/05 00:37:53;;;;;;;4.50;2.35;;;;;;;;;;2075698;28;20080;-47
2024/02/05 00:38:54;;;;;;;5.72;2.70;;;;;;;;;;2081619;28;20025;-47
2024/02/05 00:39:55;;;;;;;6.30;3.00;;;;;;;;;;2081555;28;20407;-47
2024/02/05 00:40:57;;;;;;;4.25;2.42;;;;;;;;;;2081562;28;20499;-48
2024/02/05 00:41:58;;;;;;;4.60;2.55;;;;;;;;;;2081471;28;20033;-47
2024/02/05 00:43:00;;;;;;;5.32;3.03;;;;;;;;;;2081156;28;20034;-47
2024/02/05 00:44:01;;;;;;;5.18;3.00;;;;;;;;;;2080895;28;20365;-47
2024/02/05 00:45:02;;;;;;;4.85;2.95;;;;;;;;;;2081552;28;20422;-48
2024/02/05 00:46:05;;;;;;;6.32;2.88;;;;;;;;;;2081359;28;20372;-45
2024/02/05 00:47:07;;;;;;;4.97;2.83;;;;;;;;;;2081590;28;20172;-52
2024/02/05 00:48:08;;;;;;;5.97;2.60;;;;;;;;;;2077159;28;20496;-53
2024/02/05 00:49:09;;;;;;;4.47;2.33;;;;;;;;;;2072694;28;20015;-52
2024/02/05 00:50:11;;;;;;;3.95;2.60;;;;;;;;;;2075818;28;20049;-53
2024/02/05 00:51:12;;;;;;;6.47;3.17;;;;;;;;;;2080884;28;20072;-52
2024/02/05 00:52:14;;;;;;;5.57;2.45;;;;;;;;;;2080773;28;20029;-52
2024/02/05 00:53:15;;;;;;;5.72;2.65;;;;;;;;;;2079435;28;20395;-48
2024/02/05 00:54:17;;;;;;;5.15;2.83;;;;;;;;;;2081161;28;20036;-53
2024/02/05 00:55:18;;;;;;;5.20;2.30;;;;;;;;;;2077450;28;20022;-51
2024/02/05 00:56:19;;;;;;;7.38;2.95;;;;;;;;;;2073307;28;20097;-52
2024/02/05 00:57:21;;;;;;;3.95;2.63;;;;;;;;;;2073027;28;20448;-55
2024/02/05 00:58:22;;;;;;;5.63;2.42;;;;;;;;;;2073265;28;20105;-52
2024/02/05 00:59:23;;;;;;;6.35;2.95;;;;;;;;;;2076310;28;20538;-53
2024/02/05 01:00:24;;;;;;;8.13;2.53;;;;;;;;;;2080470;28;20049;-53
2024/02/05 01:01:26;;;;;;;5.30;3.00;;;;;;;;;;2081426;28;20495;-50
2024/02/05 01:02:27;;;;;;;5.30;2.60;;;;;;;;;;2080809;28;20037;-52
2024/02/05 01:03:28;;;;;;;4.90;2.60;;;;;;;;;;2080579;28;20511;-53
2024/02/05 01:04:32;;;;;;;5.32;2.72;;;;;;;;;;2081346;28;20029;-53
2024/02/05 01:05:33;;;;;;;6.40;2.53;;;;;;;;;;2081214;28;20482;-52
2024/02/05 01:06:34;;;;;;;4.53;2.75;;;;;;;;;;2081323;28;20025;-52
2024/02/05 01:07:36;;;;;;;3.42;2.35;;;;;;;;;;2080231;28;20029;-49
2024/02/05 01:08:37;;;;;;;6.30;3.05;;;;;;;;;;2081246;28;20049;-53
2024/02/05 01:09:39;;;;;;;4.53;2.58;;;;;;;;;;2081096;28;20017;-52
2024/02/05 01:10:40;;;;;;;5.22;2.53;;;;;;;;;;2080532;28;20017;-53
2024/02/05 01:11:41;;;;;;;6.50;2.70;;;;;;;;;;2075622;28;20392;-54
2024/02/05 01:12:42;;;;;;;6.05;2.83;;;;;;;;;;2075643;28;20042;-55
2024/02/05 01:13:43;;;;;;;6.38;3.22;;;;;;;;;;2081073;28;20392;-52
2024/02/05 01:14:45;;;;;;;5.20;2.47;;;;;;;;;;2079642;28;20113;-52
2024/02/05 01:15:46;;;;;;;5.25;2.78;;;;;;;;;;2072971;28;20017;-54
2024/02/05 01:16:47;;;;;;;5.47;2.80;;;;;;;;;;2076098;28;20109;-52
2024/02/05 01:17:48;;;;;;;5.30;2.33;;;;;;;;;;2080707;28;20022;-52
2024/02/05 01:18:50;;;;;;;4.60;2.60;;;;;;;;;;2080526;28;20037;-51
2024/02/05 01:19:51;;;;;;;4.38;2.65;;;;;;;;;;2081090;28;20025;-46
2024/02/05 01:20:52;;;;;;;3.50;2.45;;;;;;;;;;2081242;28;20029;-46
2024/02/05 01:21:53;;;;;;;4.97;2.60;;;;;;;;;;2081047;28;20014;-47
2024/02/05 01:22:55;;;;;;;6.28;2.65;;;;;;;;;;2073132;28;20048;-46
2024/02/05 01:23:56;;;;;;;5.20;2.47;;;;;;;;;;2073045;28;20093;-46
2024/02/05 01:24:58;;;;;;;3.53;2.38;;;;;;;;;;2073093;28;20365;-47
2024/02/05 01:25:59;;;;;;;3.38;2.20;;;;;;;;;;2073129;28;20025;-47
2024/02/05 01:27:00;;;;;;;6.88;2.47;;;;;;;;;;2073092;28;20018;-47
2024/02/05 01:28:03;;;;;;;6.68;2.35;;;;;;;;;;2072807;28;20484;-47
2024/02/05 01:29:06;;;;;;;4.18;2.28;;;;;;;;;;2073086;28;20053;-47
2024/02/05 01:30:08;;;;;;;5.93;2.80;;;;;;;;;;2074007;28;20105;-46
2024/02/05 01:31:10;;;;;;;3.28;2.10;;;;;;;;;;2072989;28;20500;-46
2024/02/05 01:32:11;;;;;;;6.45;2.70;;;;;;;;;;2072951;28;20068;-46
2024/02/05 01:33:13;;;;;;;4.60;2.40;;;;;;;;;;2073211;28;20140;-46
2024/02/05 01:34:14;;;;;;;5.00;2.30;;;;;;;;;;2072471;28;20029;-46
2024/02/05 01:35:15;;;;;;;4.13;2.22;;;;;;;;;;2072395;28;20028;-46
2024/02/05 01:36:17;;;;;;;3.35;2.05;;;;;;;;;;2072333;28;20018;-46
2024/02/05 01:37:18;;;;;;;5.03;2.42;;;;;;;;;;2073141;28;20029;-46
2024/02/05 01:38:19;;;;;;;3.85;2.22;;;;;;;;;;2073133;28;20029;-45
2024/02/05 01:39:22;;;;;;;4.45;2.30;;;;;;;;;;2080433;28;20614;-44
2024/02/05 01:40:23;;;;;;;5.05;2.22;;;;;;;;;;2080512;28;20028;-44
2024/02/05 01:41:24;;;;;;;3.47;2.35;;;;;;;;;;2080963;28;20032;-45
2024/02/05 01:42:26;;;;;;;4.13;2.88;;;;;;;;;;2081015;28;20025;-44
2024/02/05 01:43:27;;;;;;;3.63;1.92;;;;;;;;;;2081148;28;20033;-44
2024/02/05 01:44:28;;;;;;;3.47;2.35;;;;;;;;;;2080585;28;20640;-44
2024/02/05 01:45:30;;;;;;;6.97;2.47;;;;;;;;;;2080467;28;20037;-45
2024/02/05 01:46:32;;;;;;;4.63;2.65;;;;;;;;;;2081166;28;20058;-45
2024/02/05 01:47:36;;;;;;;4.43;2.35;;;;;;;;;;2081030;28;20070;-44
2024/02/05 01:48:38;;;;;;;3.85;2.47;;;;;;;;;;2081262;28;20018;-45
2024/02/05 01:49:39;;;;;;;6.22;2.67;;;;;;;;;;2079756;28;20868;-44
2024/02/05 01:50:41;;;;;;;5.75;2.42;;;;;;;;;;2080110;28;20472;-46
2024/02/05 01:51:47;;;;;;;5.13;2.28;;;;;;;;;;2073010;28;20028;-47
2024/02/05 01:52:50;;;;;;;5.63;2.40;;;;;;;;;;2073074;28;20014;-44
2024/02/05 01:53:56;;;;;;;5.03;2.10;;;;;;;;;;2072913;28;20021;-45
2024/02/05 01:54:57;;;;;;;5.28;2.90;;;;;;;;;;2072751;28;20361;-44
2024/02/05 01:55:58;;;;;;;4.30;2.30;;;;;;;;;;2073132;28;20022;-45
2024/02/05 01:57:00;;;;;;;7.03;2.83;;;;;;;;;;2072349;28;20579;-45
2024/02/05 01:58:02;;;;;;;4.45;2.35;;;;;;;;;;2072396;28;20101;-44
2024/02/05 01:59:05;;;;;;;3.60;2.25;;;;;;;;;;2072925;28;20342;-45
2024/02/05 02:00:06;;;;;;;6.05;2.58;;;;;;;;;;2073784;28;20404;-45
2024/02/05 02:01:09;;;;;;;4.70;2.42;;;;;;;;;;2081146;28;20037;-45
2024/02/05 02:02:11;;;;;;;3.90;2.55;;;;;;;;;;2081237;28;20527;-46
2024/02/05 02:03:12;;;;;;;4.20;2.38;;;;;;;;;;2081073;28;20033;-45
2024/02/05 02:04:14;;;;;;;4.80;2.13;;;;;;;;;;2081084;28;20040;-45
2024/02/05 02:05:16;;;;;;;3.83;2.50;;;;;;;;;;2081044;28;20027;-46
2024/02/05 02:06:17;;;;;;;3.92;1.98;;;;;;;;;;2080538;28;20009;-44
2024/02/05 02:07:19;;;;;;;5.18;2.50;;;;;;;;;;2080358;28;20018;-45
2024/02/05 02:08:22;;;;;;;3.78;2.42;;;;;;;;;;2081216;28;20092;-46
2024/02/05 02:09:24;;;;;;;5.03;2.38;;;;;;;;;;2081188;28;20032;-45
2024/02/05 02:10:25;;;;;;;4.15;2.20;;;;;;;;;;2080758;28;20101;-45
2024/02/05 02:11:26;;;;;;;4.93;2.13;;;;;;;;;;2080567;28;20064;-44
2024/02/05 02:12:27;;;;;;;3.72;1.85;;;;;;;;;;2080377;28;20519;-45
2024/02/05 02:13:29;;;;;;;3.15;1.83;;;;;;;;;;2081216;28;20068;-44
2024/02/05 02:14:31;;;;;;;5.28;2.50;;;;;;;;;;2080559;28;20057;-45
2024/02/05 02:15:32;;;;;;;4.50;2.60;;;;;;;;;;2080614;28;20017;-45
2024/02/05 02:16:33;;;;;;;3.70;2.42;;;;;;;;;;2081238;28;20017;-53
2024/02/05 02:17:37;;;;;;;6.13;2.15;;;;;;;;;;2081079;28;20471;-52
2024/02/05 02:18:38;;;;;;;3.88;1.95;;;;;;;;;;2081169;28;20066;-53
2024/02/05 02:19:48;;;;;;;3.53;1.73;;;;;;;;;;2074108;28;20496;-53
2024/02/05 02:20:51;;;;;;;3.35;1.90;;;;;;;;;;2079546;28;20403;-54
2024/02/05 02:21:58;;;;;;;4.13;2.35;;;;;;;;;;2081437;28;20029;-53
2024/02/05 02:23:08;;;;;;;3.60;1.92;;;;;;;;;;2080880;28;20449;-52
2024/02/05 02:24:09;;;;;;;6.82;2.15;;;;;;;;;;2081306;28;20060;-54
2024/02/05 02:25:11;;;;;;;3.53;2.33;;;;;;;;;;2080551;28;20491;-53
2024/02/05 02:26:12;;;;;;;4.88;2.55;;;;;;;;;;2080668;28;20033;-51
2024/02/05 02:27:13;;;;;;;4.07;2.30;;;;;;;;;;2081098;28;20026;-52
2024/02/05 02:28:15;;;;;;;3.30;2.38;;;;;;;;;;2081237;28;20063;-51
2024/02/05 02:29:16;;;;;;;4.25;2.40;;;;;;;;;;2081154;28;20492;-51
2024/02/05 02:30:19;;;;;;;4.75;2.50;;;;;;;;;;2079345;28;20108;-51
2024/02/05 02:31:21;;;;;;;4.53;2.40;;;;;;;;;;2079788;28;20091;-51
2024/02/05 02:32:25;;;;;;;4.72;2.55;;;;;;;;;;2073150;28;20105;-49
2024/02/05 02:33:29;;;;;;;3.33;2.30;;;;;;;;;;2072808;28;20376;-50
2024/02/05 02:34:32;;;;;;;3.45;2.35;;;;;;;;;;2072997;28;20056;-51
2024/02/05 02:35:37;;;;;;;4.10;2.20;;;;;;;;;;2073073;28;20076;-51
2024/02/05 02:36:41;;;;;;;4.00;2.35;;;;;;;;;;2072934;28;20026;-51
2024/02/05 02:37:47;;;;;;;4.13;2.22;;;;;;;;;;2073035;28;20508;-52
2024/02/05 02:38:51;;;;;;;7.20;2.10;;;;;;;;;;2073004;28;20028;-51
2024/02/05 02:39:58;;;;;;;5.05;2.50;;;;;;;;;;2073191;28;20036;-46
2024/02/05 02:41:03;;;;;;;3.63;2.10;;;;;;;;;;2081058;28;20053;-58
2024/02/05 02:42:05;;;;;;;4.72;2.25;;;;;;;;;;2073475;28;20117;-51
2024/02/05 02:43:08;;;;;;;3.55;2.20;;;;;;;;;;2072999;28;20022;-51
2024/02/05 02:44:10;;;;;;;3.88;2.25;;;;;;;;;;2072799;28;20021;-51
2024/02/05 02:45:12;;;;;;;5.07;2.33;;;;;;;;;;2072868;28;20026;-50
2024/02/05 02:46:13;;;;;;;5.40;2.30;;;;;;;;;;2073081;28;20100;-50
2024/02/05 02:47:15;;;;;;;4.55;2.30;;;;;;;;;;2073102;28;20033;-51
2024/02/05 02:48:16;;;;;;;4.05;2.10;;;;;;;;;;2072213;28;20022;-53
2024/02/05 02:49:17;;;;;;;4.18;2.03;;;;;;;;;;2072355;28;20030;-53
2024/02/05 02:50:21;;;;;;;2.85;1.80;;;;;;;;;;2073108;28;20488;-55
2024/02/05 02:51:25;;;;;;;4.78;2.20;;;;;;;;;;2073013;28;20029;-52
2024/02/05 02:52:27;;;;;;;4.35;2.10;;;;;;;;;;2073105;28;20538;-54
2024/02/05 02:53:28;;;;;;;5.15;2.42;;;;;;;;;;2073512;28;20064;-53
2024/02/05 02:54:29;;;;;;;5.20;2.50;;;;;;;;;;2081008;28;20028;-53
2024/02/05 02:55:31;;;;;;;4.60;2.30;;;;;;;;;;2080860;28;20025;-53
2024/02/05 02:56:33;;;;;;;4.32;2.38;;;;;;;;;;2081098;28;20044;-53
2024/02/05 02:57:34;;;;;;;4.68;2.50;;;;;;;;;;2081008;28;20018;-47
2024/02/05 02:58:35;;;;;;;4.53;1.98;;;;;;;;;;2080935;28;20471;-54
2024/02/05 02:59:36;;;;;;;3.67;2.40;;;;;;;;;;2080383;28;20097;-55
2024/02/05 03:00:38;;;;;;;2.78;1.70;;;;;;;;;;2079565;28;20443;-54
2024/02/05 03:01:39;;;;;;;4.90;2.30;;;;;;;;;;2072760;28;20384;-52
2024/02/05 03:02:40;;;;;;;5.30;2.33;;;;;;;;;;2078160;28;20380;-54
2024/02/05 03:03:41;;;;;;;3.85;2.10;;;;;;;;;;2080865;28;20484;-54
2024/02/05 03:04:43;;;;;;;3.65;2.30;;;;;;;;;;2081015;28;20032;-53
2024/02/05 03:05:44;;;;;;;5.47;2.35;;;;;;;;;;2080314;28;20032;-53
2024/02/05 03:06:45;;;;;;;5.45;2.55;;;;;;;;;;2080706;28;20016;-53
2024/02/05 03:07:47;;;;;;;3.40;2.20;;;;;;;;;;2082189;28;20097;-54
2024/02/05 03:08:48;;;;;;;4.72;2.47;;;;;;;;;;2082340;28;20025;-53
2024/02/05 03:09:49;;;;;;;6.20;2.67;;;;;;;;;;2082581;28;20026;-53
2024/02/05 03:10:50;;;;;;;6.50;2.58;;;;;;;;;;2078553;28;20025;-51
2024/02/05 03:11:52;;;;;;;9.18;2.60;;;;;;;;;;2074246;28;20025;-51
2024/02/05 03:12:53;;;;;;;4.40;2.40;;;;;;;;;;2074374;28;20029;-51
2024/02/05 03:13:54;;;;;;;4.97;2.63;;;;;;;;;;2074282;28;20033;-51
2024/02/05 03:14:55;;;;;;;4.32;2.65;;;;;;;;;;2074284;28;20018;-52
2024/02/05 03:15:58;;;;;;;5.30;2.40;;;;;;;;;;2073673;28;20026;-55
2024/02/05 03:16:59;;;;;;;5.50;2.15;;;;;;;;;;2073598;28;20030;-51
2024/02/05 03:18:01;;;;;;;4.47;2.60;;;;;;;;;;2074262;28;20029;-54
2024/02/05 03:19:02;;;;;;;3.20;2.15;;;;;;;;;;2073644;28;20486;-54
2024/02/05 03:20:06;;;;;;;3.72;2.35;;;;;;;;;;2073557;28;20042;-52
2024/02/05 03:21:07;;;;;;;4.60;2.65;;;;;;;;;;2073645;28;20025;-53
2024/02/05 03:22:08;;;;;;;3.95;2.63;;;;;;;;;;2073709;28;20409;-54
2024/02/05 03:23:10;;;;;;;3.95;2.33;;;;;;;;;;2074264;28;20083;-55
2024/02/05 03:24:12;;;;;;;6.97;2.35;;;;;;;;;;2074494;28;20504;-55
2024/02/05 03:25:14;;;;;;;3.75;2.28;;;;;;;;;;2074127;28;20100;-55
2024/02/05 03:26:16;;;;;;;3.90;2.60;;;;;;;;;;2074152;28;20507;-46
2024/02/05 03:27:17;;;;;;;4.88;2.70;;;;;;;;;;2074529;28;20022;-54
2024/02/05 03:28:18;;;;;;;4.40;2.60;;;;;;;;;;2074466;28;20515;-53
2024/02/05 03:29:20;;;;;;;4.95;2.42;;;;;;;;;;2074495;28;20022;-53
2024/02/05 03:30:21;;;;;;;4.63;2.30;;;;;;;;;;2074967;28;20014;-53
2024/02/05 03:31:22;;;;;;;4.82;2.70;;;;;;;;;;2081820;28;20024;-45
2024/02/05 03:32:23;;;;;;;7.55;2.90;;;;;;;;;;2082768;28;20092;-45
2024/02/05 03:33:25;;;;;;;5.68;3.13;;;;;;;;;;2082598;28;20060;-46
2024/02/05 03:34:26;;;;;;;4.78;2.20;;;;;;;;;;2082758;28;20029;-46
2024/02/05 03:35:27;;;;;;;4.05;2.50;;;;;;;;;;2082460;28;20356;-45
2024/02/05 03:36:29;;;;;;;6.43;2.80;;;;;;;;;;2081882;28;20462;-46
2024/02/05 03:37:30;;;;;;;3.60;2.15;;;;;;;;;;2081861;28;20100;-45
2024/02/05 03:38:31;;;;;;;4.70;2.30;;;;;;;;;;2082468;28;20060;-45
2024/02/05 03:39:32;;;;;;;6.05;2.50;;;;;;;;;;2082646;28;20074;-45
2024/02/05 03:40:35;;;;;;;4.53;2.85;;;;;;;;;;2081642;28;20148;-45
2024/02/05 03:41:36;;;;;;;4.15;2.47;;;;;;;;;;2081742;28;20025;-45
2024/02/05 03:42:38;;;;;;;4.45;2.33;;;;;;;;;;2081623;28;20060;-46
2024/02/05 03:43:40;;;;;;;3.97;2.25;;;;;;;;;;2081428;28;20106;-45
2024/02/05 03:44:42;;;;;;;3.38;2.35;;;;;;;;;;2082510;28;20084;-45
2024/02/05 03:45:43;;;;;;;7.70;2.60;;;;;;;;;;2082399;28;20464;-45
2024/02/05 03:46:44;;;;;;;4.80;2.50;;;;;;;;;;2082267;28;20053;-44
2024/02/05 03:47:46;;;;;;;5.22;2.63;;;;;;;;;;2082355;28;20510;-45
2024/02/05 03:48:51;;;;;;;4.25;2.17;;;;;;;;;;2082105;28;20019;-45
2024/02/05 03:49:52;;;;;;;4.20;2.63;;;;;;;;;;2080636;28;20091;-45
2024/02/05 03:50:55;;;;;;;4.22;2.60;;;;;;;;;;2073845;28;20072;-45
2024/02/05 03:51:56;;;;;;;3.88;2.45;;;;;;;;;;2073793;28;20105;-45
2024/02/05 03:52:57;;;;;;;5.80;2.40;;;;;;;;;;2073979;28;20049;-54
2024/02/05 03:54:01;;;;;;;5.47;2.70;;;;;;;;;;2073126;28;20046;-52
2024/02/05 03:55:02;;;;;;;4.78;2.70;;;;;;;;;;2073380;28;20103;-54
2024/02/05 03:56:04;;;;;;;4.20;2.70;;;;;;;;;;2073806;28;20080;-52
2024/02/05 03:57:05;;;;;;;4.78;2.22;;;;;;;;;;2073832;28;20032;-50
2024/02/05 03:58:06;;;;;;;4.93;2.42;;;;;;;;;;2073789;28;20084;-53
2024/02/05 03:59:09;;;;;;;5.60;2.60;;;;;;;;;;2073804;28;20060;-52
2024/02/05 04:00:12;;;;;;;5.30;2.60;;;;;;;;;;2073141;28;20025;-47
2024/02/05 04:01:13;;;;;;;4.18;2.58;;;;;;;;;;2071925;28;20014;-46
2024/02/05 04:02:14;;;;;;;9.10;2.63;;;;;;;;;;2081423;28;20044;-46
2024/02/05 04:03:15;;;;;;;6.43;2.88;;;;;;;;;;2081267;28;20572;-47
2024/02/05 04:04:17;;;;;;;5.32;2.55;;;;;;;;;;2073334;28;20029;-47
2024/02/05 04:05:18;;;;;;;3.90;2.33;;;;;;;;;;2073750;28;20064;-47
2024/02/05 04:06:19;;;;;;;5.93;2.65;;;;;;;;;;2073822;28;20022;-47
2024/02/05 04:07:20;;;;;;;4.38;2.65;;;;;;;;;;2073637;28;20092;-46
2024/02/05 04:08:22;;;;;;;4.53;2.58;;;;;;;;;;2073710;28;20464;-47
2024/02/05 04:09:23;;;;;;;4.20;2.13;;;;;;;;;;2076003;28;20010;-46
2024/02/05 04:10:26;;;;;;;4.38;2.30;;;;;;;;;;2072928;28;20030;-46
2024/02/05 04:11:27;;;;;;;4.10;2.67;;;;;;;;;;2072963;28;20416;-45
2024/02/05 04:12:28;;;;;;;5.28;2.88;;;;;;;;;;2073168;28;20025;-45
2024/02/05 04:13:30;;;;;;;6.60;2.35;;;;;;;;;;2073021;28;20041;-45
2024/02/05 04:14:32;;;;;;;4.47;2.22;;;;;;;;;;2073549;28;20014;-45
2024/02/05 04:15:34;;;;;;;4.18;2.38;;;;;;;;;;2081319;28;20516;-45
2024/02/05 04:16:36;;;;;;;5.70;2.45;;;;;;;;;;2081840;28;20025;-45
2024/02/05 04:17:37;;;;;;;5.43;2.80;;;;;;;;;;2081683;28;20547;-45
2024/02/05 04:18:38;;;;;;;4.88;2.60;;;;;;;;;;2072976;28;20030;-45
2024/02/05 04:19:43;;;;;;;5.45;2.33;;;;;;;;;;2062763;28;20026;-47
2024/02/05 04:20:44;;;;;;;5.57;2.53;;;;;;;;;;2073052;28;20508;-46
2024/02/05 04:21:46;;;;;;;4.47;2.53;;;;;;;;;;2073590;28;20065;-46
2024/02/05 04:22:49;;;;;;;5.57;2.80;;;;;;;;;;2073634;28;20408;-46
2024/02/05 04:23:50;;;;;;;4.80;2.50;;;;;;;;;;2073710;28;20141;-48
2024/02/05 04:24:52;;;;;;;4.88;2.50;;;;;;;;;;2073582;28;20018;-47
2024/02/05 04:25:53;;;;;;;3.03;2.13;;;;;;;;;;2073601;28;20022;-46
2024/02/05 04:26:54;;;;;;;3.85;2.60;;;;;;;;;;2073644;28;20018;-46
2024/02/05 04:27:56;;;;;;;3.47;2.28;;;;;;;;;;2073577;28;20022;-46
2024/02/05 04:28:57;;;;;;;4.78;2.53;;;;;;;;;;2073612;28;20102;-47
2024/02/05 04:29:58;;;;;;;7.00;2.70;;;;;;;;;;2072567;28;20369;-46
2024/02/05 04:30:59;;;;;;;5.18;2.47;;;;;;;;;;2072819;28;20462;-45
2024/02/05 04:32:01;;;;;;;5.28;2.88;;;;;;;;;;2072816;28;20500;-47
2024/02/05 04:33:02;;;;;;;4.18;2.53;;;;;;;;;;2064997;28;20077;-45
2024/02/05 04:34:03;;;;;;;5.05;2.70;;;;;;;;;;2072857;28;20010;-45
2024/02/05 04:35:05;;;;;;;3.53;2.30;;;;;;;;;;2073474;28;20022;-52
2024/02/05 04:36:12;;;;;;;4.90;2.58;;;;;;;;;;2073514;28;20026;-52
2024/02/05 04:37:14;;;;;;;4.65;2.50;;;;;;;;;;2073551;28;20017;-52
2024/02/05 04:38:15;;;;;;;5.55;2.78;;;;;;;;;;2072874;28;20453;-52
2024/02/05 04:39:16;;;;;;;3.88;2.42;;;;;;;;;;2072858;28;20032;-51
2024/02/05 04:40:17;;;;;;;5.30;2.95;;;;;;;;;;2072806;28;20026;-53
2024/02/05 04:41:19;;;;;;;5.63;2.47;;;;;;;;;;2079994;28;20447;-52
2024/02/05 04:42:20;;;;;;;4.43;2.20;;;;;;;;;;2073439;28;20033;-52
2024/02/05 04:43:21;;;;;;;4.45;2.55;;;;;;;;;;2073103;28;20040;-47
2024/02/05 04:44:22;;;;;;;5.95;3.22;;;;;;;;;;2081494;28;20306;-52
2024/02/05 04:45:24;;;;;;;4.88;2.33;;;;;;;;;;2081020;28;20112;-52
2024/02/05 04:46:25;;;;;;;4.65;2.90;;;;;;;;;;2080887;28;20037;-53
2024/02/05 04:47:26;;;;;;;6.10;2.30;;;;;;;;;;2081224;28;20610;-53
2024/02/05 04:48:27;;;;;;;4.30;2.25;;;;;;;;;;2081463;28;20448;-54
2024/02/05 04:49:29;;;;;;;4.32;2.00;;;;;;;;;;2081453;28;20021;-54
2024/02/05 04:50:30;;;;;;;3.40;2.53;;;;;;;;;;2076283;28;20021;-52
2024/02/05 04:51:31;;;;;;;3.67;2.20;;;;;;;;;;2072620;28;20014;-52
2024/02/05 04:52:34;;;;;;;4.15;2.28;;;;;;;;;;2073013;28;20022;-53
2024/02/05 04:53:35;;;;;;;4.35;3.03;;;;;;;;;;2072501;28;20038;-53
2024/02/05 04:54:37;;;;;;;3.50;2.15;;;;;;;;;;2072742;28;20026;-53
2024/02/05 04:55:41;;;;;;;5.05;2.35;;;;;;;;;;2073241;28;20543;-51
2024/02/05 04:56:43;;;;;;;6.82;2.67;;;;;;;;;;2073385;28;20376;-52
2024/02/05 04:57:48;;;;;;;3.50;2.13;;;;;;;;;;2073224;28;20029;-53
2024/02/05 04:58:51;;;;;;;5.22;2.72;;;;;;;;;;2073337;28;20053;-52
2024/02/05 04:59:52;;;;;;;3.75;2.30;;;;;;;;;;2077554;28;20029;-51
2024/02/05 05:00:53;;;;;;;5.13;2.30;;;;;;;;;;2080972;28;20412;-52
2024/02/05 05:01:54;;;;;;;4.10;2.80;;;;;;;;;;2081445;28;20099;-52
2024/02/05 05:02:56;;;;;;;4.65;2.20;;;;;;;;;;2080103;28;20538;-53
2024/02/05 05:03:57;;;;;;;5.32;2.25;;;;;;;;;;2080058;28;20034;-53
2024/02/05 05:04:58;;;;;;;3.28;2.20;;;;;;;;;;2081347;28;20372;-53
2024/02/05 05:06:00;;;;;;;3.38;2.17;;;;;;;;;;2080676;28;20022;-51
2024/02/05 05:07:01;;;;;;;4.95;2.45;;;;;;;;;;2080806;28;20469;-52
2024/02/05 05:08:02;;;;;;;4.50;2.10;;;;;;;;;;2081284;28;20372;-54
2024/02/05 05:09:03;;;;;;;5.22;2.63;;;;;;;;;;2081375;28;20025;-50
2024/02/05 05:10:05;;;;;;;5.20;2.60;;;;;;;;;;2081354;28;20013;-50
2024/02/05 05:11:06;;;;;;;4.50;2.38;;;;;;;;;;2080431;28;20029;-51
2024/02/05 05:12:08;;;;;;;5.43;2.50;;;;;;;;;;2079104;28;20092;-52
2024/02/05 05:13:09;;;;;;;3.70;2.63;;;;;;;;;;2073134;28;20423;-53
2024/02/05 05:14:10;;;;;;;3.13;2.50;;;;;;;;;;2073299;28;20018;-51
2024/02/05 05:15:15;;;;;;;4.70;2.72;;;;;;;;;;2078264;28;20018;-53
2024/02/05 05:16:18;;;;;;;4.20;2.78;;;;;;;;;;2081410;28;20140;-53
2024/02/05 05:17:19;;;;;;;3.92;2.40;;;;;;;;;;2080777;28;20034;-54
2024/02/05 05:18:20;;;;;;;4.97;2.80;;;;;;;;;;2080829;28;20089;-52
2024/02/05 05:19:21;;;;;;;3.80;2.60;;;;;;;;;;2080796;28;20033;-52
2024/02/05 05:20:23;;;;;;;5.03;2.05;;;;;;;;;;2081134;28;20026;-53
2024/02/05 05:21:24;;;;;;;4.18;2.22;;;;;;;;;;2080865;28;20037;-47
2024/02/05 05:22:25;;;;;;;3.03;2.15;;;;;;;;;;2081291;28;20022;-52
2024/02/05 05:23:26;;;;;;;4.60;2.30;;;;;;;;;;2080914;28;20495;-53
2024/02/05 05:24:28;;;;;;;3.17;2.10;;;;;;;;;;2081255;28;20116;-53
2024/02/05 05:25:29;;;;;;;3.75;2.00;;;;;;;;;;2081175;28;20460;-54
2024/02/05 05:26:30;;;;;;;5.72;2.55;;;;;;;;;;2081213;28;20017;-53
2024/02/05 05:27:32;;;;;;;3.67;2.13;;;;;;;;;;2081220;28;20013;-53
2024/02/05 05:28:33;;;;;;;4.35;2.20;;;;;;;;;;2081295;28;20017;-53
2024/02/05 05:29:34;;;;;;;2.72;1.63;;;;;;;;;;2079019;28;20022;-53
2024/02/05 05:30:36;;;;;;;3.70;1.92;;;;;;;;;;2074523;28;20050;-54
2024/02/05 05:31:37;;;;;;;4.32;2.10;;;;;;;;;;2076517;28;20065;-53
2024/02/05 05:32:38;;;;;;;4.72;1.75;;;;;;;;;;2075334;28;20010;-54
2024/02/05 05:33:39;;;;;;;3.70;2.25;;;;;;;;;;2079569;28;20060;-55
2024/02/05 05:34:41;;;;;;;4.75;2.20;;;;;;;;;;2081373;28;20033;-50
2024/02/05 05:35:42;;;;;;;3.35;2.10;;;;;;;;;;2081160;28;20104;-54
2024/02/05 05:36:43;;;;;;;3.47;2.20;;;;;;;;;;2077060;28;20100;-52
2024/02/05 05:37:45;;;;;;;4.97;2.60;;;;;;;;;;2073064;28;20117;-52
2024/02/05 05:38:46;;;;;;;5.45;2.10;;;;;;;;;;2072996;28;20018;-49
2024/02/05 05:39:49;;;;;;;3.63;2.08;;;;;;;;;;2072953;28;20026;-49
2024/02/05 05:40:50;;;;;;;4.15;2.35;;;;;;;;;;2077284;28;20026;-53
2024/02/05 05:41:51;;;;;;;6.70;2.72;;;;;;;;;;2072880;28;20069;-51
2024/02/05 05:42:53;;;;;;;5.38;2.72;;;;;;;;;;2073073;28;20443;-51
2024/02/05 05:43:54;;;;;;;5.82;3.17;;;;;;;;;;2072959;28;20038;-52
2024/02/05 05:44:55;;;;;;;4.82;3.08;;;;;;;;;;2074390;28;20030;-53
2024/02/05 05:45:57;;;;;;;8.13;3.55;;;;;;;;;;2074330;28;20026;-48
2024/02/05 05:46:58;;;;;;;5.90;2.95;;;;;;;;;;2073539;28;20022;-53
2024/02/05 05:47:59;;;;;;;7.00;3.35;;;;;;;;;;2072845;28;20020;-53
2024/02/05 05:49:01;;;;;;;5.70;2.97;;;;;;;;;;2073034;28;20465;-53
2024/02/05 05:50:02;;;;;;;5.90;2.88;;;;;;;;;;2072232;28;20037;-52
2024/02/05 05:51:03;;;;;;;5.93;2.88;;;;;;;;;;2072349;28;20006;-52
2024/02/05 05:52:05;;;;;;;5.10;2.75;;;;;;;;;;2072967;28;20441;-53
2024/02/05 05:53:06;;;;;;;4.15;2.50;;;;;;;;;;2073135;28;20077;-46
2024/02/05 05:54:09;;;;;;;3.70;2.40;;;;;;;;;;2072909;28;20018;-52
2024/02/05 05:55:10;;;;;;;6.97;2.42;;;;;;;;;;2073098;28;20076;-52
2024/02/05 05:56:11;;;;;;;5.00;2.42;;;;;;;;;;2073013;28;20070;-52
2024/02/05 05:57:14;;;;;;;5.05;2.38;;;;;;;;;;2073076;28;20029;-50
2024/02/05 05:58:16;;;;;;;5.35;2.47;;;;;;;;;;2072932;28;20022;-52
2024/02/05 05:59:17;;;;;;;4.50;2.45;;;;;;;;;;2072862;28;20026;-46
2024/02/05 06:00:18;;;;;;;6.32;2.63;;;;;;;;;;2072902;28;20041;-49
2024/02/05 06:01:21;;;;;;;6.38;2.67;;;;;;;;;;2080393;28;20040;-51
2024/02/05 06:02:22;;;;;;;4.28;2.38;;;;;;;;;;2081136;28;20029;-51
2024/02/05 06:03:23;;;;;;;4.28;2.05;;;;;;;;;;2080385;28;20030;-51
2024/02/05 06:04:25;;;;;;;3.53;2.17;;;;;;;;;;2081187;28;20095;-51
2024/02/05 06:05:26;;;;;;;3.25;1.83;;;;;;;;;;2080303;28;20026;-50
2024/02/05 06:06:28;;;;;;;4.43;1.85;;;;;;;;;;2080410;28;20512;-49
2024/02/05 06:07:29;;;;;;;3.90;1.80;;;;;;;;;;2080951;28;20030;-50
2024/02/05 06:08:31;;;;;;;5.93;2.17;;;;;;;;;;2080991;28;20005;-50
2024/02/05 06:09:33;;;;;;;4.32;2.20;;;;;;;;;;2081169;28;20029;-49
2024/02/05 06:10:34;;;;;;;3.83;2.00;;;;;;;;;;2080423;28;20025;-50